createdAt,value
2019-03-26T00:01:54.476Z,1.89
2019-03-26T00:04:22.868Z,1.94
2019-03-26T00:06:51.268Z,1.89
2019-03-26T00:09:19.659Z,1.81
2019-03-26T00:11:48.318Z,1.75
2019-03-26T00:14:16.703Z,1.70
2019-03-26T00:16:45.100Z,1.69
2019-03-26T00:19:13.589Z,1.58
2019-03-26T00:21:41.982Z,1.47
2019-03-26T00:24:10.533Z,1.47
2019-03-26T00:26:38.936Z,1.46
2019-03-26T00:29:07.344Z,1.35
2019-03-26T00:31:35.738Z,1.35
2019-03-26T00:34:04.193Z,1.29
2019-03-26T00:36:32.608Z,1.19
2019-03-26T00:39:01.093Z,1.25
2019-03-26T00:41:29.490Z,1.23
2019-03-26T00:43:57.882Z,1.17
2019-03-26T00:46:26.305Z,1.17
2019-03-26T00:48:54.704Z,1.21
2019-03-26T00:51:23.125Z,1.29
2019-03-26T00:53:51.521Z,1.33
2019-03-26T00:56:19.929Z,1.35
2019-03-26T00:58:48.323Z,1.35
2019-03-26T01:01:17.058Z,1.38
2019-03-26T01:03:45.458Z,1.38
2019-03-26T01:06:13.867Z,1.38
2019-03-26T01:08:42.266Z,1.44
2019-03-26T01:11:10.853Z,1.51
2019-03-26T01:13:39.264Z,1.55
2019-03-26T01:16:07.711Z,1.61
2019-03-26T01:18:36.101Z,1.60
2019-03-26T01:21:04.574Z,1.67
2019-03-26T01:23:32.969Z,1.68
2019-03-26T01:26:01.388Z,1.74
2019-03-26T01:28:29.793Z,1.82
2019-03-26T01:30:58.184Z,1.76
2019-03-26T01:33:26.597Z,1.74
2019-03-26T01:35:54.985Z,1.79
2019-03-26T01:38:23.408Z,1.82
2019-03-26T01:40:51.918Z,1.86
2019-03-26T01:43:20.335Z,1.88
2019-03-26T01:45:48.733Z,1.92
2019-03-26T01:48:17.146Z,1.95
2019-03-26T01:50:45.536Z,1.94
2019-03-26T01:53:13.972Z,1.96
2019-03-26T01:55:42.357Z,1.92
2019-03-26T01:58:10.780Z,1.92
2019-03-26T02:00:39.169Z,1.95
2019-03-26T02:03:07.584Z,1.94
2019-03-26T02:05:35.980Z,1.98
2019-03-26T02:08:04.501Z,2.05
2019-03-26T02:10:32.902Z,1.67
2019-03-26T02:13:01.404Z,2.08
2019-03-26T02:15:31.132Z,2.15
2019-03-26T02:18:00.246Z,2.19
2019-03-26T02:20:28.780Z,2.22
2019-03-26T02:22:57.386Z,2.23
2019-03-26T02:25:25.826Z,2.20
2019-03-26T02:27:54.305Z,2.19
2019-03-26T02:30:22.724Z,2.19
2019-03-26T02:32:51.166Z,2.14
2019-03-26T02:35:19.702Z,2.12
2019-03-26T02:37:48.098Z,2.15
2019-03-26T02:40:16.479Z,2.20
2019-03-26T02:42:44.888Z,2.27
2019-03-26T02:45:13.428Z,2.37
2019-03-26T02:47:41.828Z,2.46
2019-03-26T02:50:10.749Z,2.58
2019-03-26T02:52:39.140Z,2.65
2019-03-26T02:55:07.846Z,2.67
2019-03-26T02:57:36.407Z,2.72
2019-03-26T03:00:07.174Z,2.73
2019-03-26T03:02:35.635Z,2.75
2019-03-26T03:05:04.337Z,2.75
2019-03-26T03:07:32.740Z,2.70
2019-03-26T03:10:01.203Z,2.69
2019-03-26T03:12:29.610Z,2.68
2019-03-26T03:14:58.027Z,2.69
2019-03-26T03:17:26.418Z,2.75
2019-03-26T03:19:54.812Z,2.78
2019-03-26T03:22:23.294Z,2.78
2019-03-26T03:24:51.759Z,2.80
2019-03-26T03:27:20.150Z,2.80
2019-03-26T03:29:48.555Z,2.79
2019-03-26T03:32:16.969Z,2.90
2019-03-26T03:34:45.377Z,2.91
2019-03-26T03:37:13.789Z,2.85
2019-03-26T03:39:42.186Z,2.75
2019-03-26T03:42:10.737Z,2.68
2019-03-26T03:44:39.206Z,2.57
2019-03-26T03:47:08.149Z,2.41
2019-03-26T03:49:37.092Z,2.37
2019-03-26T03:52:05.968Z,2.31
2019-03-26T03:54:36.511Z,2.23
2019-03-26T03:57:06.139Z,2.08
2019-03-26T03:59:34.817Z,1.98
2019-03-26T04:02:03.330Z,1.97
2019-03-26T04:04:31.776Z,1.91
2019-03-26T04:07:00.253Z,1.84
2019-03-26T04:09:28.661Z,1.80
2019-03-26T04:11:57.060Z,1.88
2019-03-26T04:14:25.454Z,1.85
2019-03-26T04:16:53.849Z,1.76
2019-03-26T04:19:22.280Z,1.75
2019-03-26T04:21:50.681Z,1.76
2019-03-26T04:24:19.140Z,1.77
2019-03-26T04:28:35.014Z,1.93
2019-03-26T04:31:03.500Z,1.93
2019-03-26T04:33:31.906Z,2.02
2019-03-26T04:36:00.295Z,2.12
2019-03-26T04:38:28.715Z,2.18
2019-03-26T04:40:57.227Z,2.24
2019-03-26T04:43:25.691Z,2.31
2019-03-26T04:45:54.065Z,2.28
2019-03-26T04:48:22.488Z,2.30
2019-03-26T04:50:50.895Z,2.34
2019-03-26T04:53:19.323Z,2.35
2019-03-26T04:55:47.717Z,2.37
2019-03-26T04:58:16.121Z,2.43
2019-03-26T05:00:44.587Z,2.41
2019-03-26T05:03:13.056Z,2.44
2019-03-26T05:05:41.459Z,2.44
2019-03-26T05:08:09.859Z,2.40
2019-03-26T05:10:38.262Z,2.48
2019-03-26T05:13:06.667Z,2.45
2019-03-26T05:15:35.093Z,2.50
2019-03-26T05:18:03.549Z,2.42
2019-03-26T05:20:31.959Z,2.32
2019-03-26T05:23:00.368Z,2.25
2019-03-26T05:25:28.847Z,2.22
2019-03-26T05:27:57.253Z,2.22
2019-03-26T05:30:25.765Z,2.13
2019-03-26T05:32:54.240Z,1.68
2019-03-26T05:35:22.722Z,2.03
2019-03-26T05:37:51.216Z,2.02
2019-03-26T05:40:19.602Z,2.16
2019-03-26T05:42:48.076Z,2.39
2019-03-26T05:45:16.488Z,2.53
2019-03-26T05:47:44.891Z,2.55
2019-03-26T05:50:15.212Z,2.66
2019-03-26T05:52:43.644Z,2.72
2019-03-26T05:55:12.317Z,2.69
2019-03-26T05:57:40.806Z,2.67
2019-03-26T06:00:13.806Z,2.92
2019-03-26T06:02:42.290Z,2.95
2019-03-26T06:05:13.983Z,2.73
2019-03-26T06:07:42.377Z,2.77
2019-03-26T06:10:11.224Z,2.81
2019-03-26T06:12:39.704Z,2.87
2019-03-26T06:15:10.357Z,3.27
2019-03-26T06:17:38.842Z,3.19
2019-03-26T06:20:08.183Z,3.35
2019-03-26T06:22:36.578Z,3.55
2019-03-26T06:25:07.650Z,3.38
2019-03-26T06:27:36.108Z,3.57
2019-03-26T06:30:07.186Z,3.55
2019-03-26T06:32:35.600Z,3.57
2019-03-26T06:35:08.750Z,3.60
2019-03-26T06:37:37.339Z,3.63
2019-03-26T06:40:09.784Z,3.77
2019-03-26T06:42:38.272Z,3.97
2019-03-26T06:45:08.412Z,4.16
2019-03-26T06:47:36.921Z,4.49
2019-03-26T06:50:10.247Z,4.77
2019-03-26T06:52:39.060Z,4.87
2019-03-26T06:55:08.215Z,4.79
2019-03-26T06:57:37.061Z,5.06
2019-03-26T07:00:11.196Z,6.16
2019-03-26T07:02:39.670Z,7.66
2019-03-26T07:05:08.805Z,10.62
2019-03-26T07:07:37.201Z,10.62
2019-03-26T07:10:07.943Z,11.85
2019-03-26T07:12:36.447Z,12.48
2019-03-26T07:15:07.651Z,13.04
2019-03-26T07:17:36.142Z,13.91
2019-03-26T07:20:07.390Z,14.88
2019-03-26T07:22:35.815Z,15.36
2019-03-26T07:25:06.511Z,15.82
2019-03-26T07:27:34.922Z,16.41
2019-03-26T07:30:03.978Z,17.29
2019-03-26T07:32:32.388Z,17.44
2019-03-26T07:35:00.827Z,17.16
2019-03-26T07:37:29.234Z,18.27
2019-03-26T07:39:57.830Z,19.11
2019-03-26T07:42:26.238Z,19.00
2019-03-26T07:44:54.743Z,19.85
2019-03-26T07:47:23.217Z,18.89
2019-03-26T07:49:51.742Z,20.33
2019-03-26T07:52:20.153Z,20.88
2019-03-26T07:54:48.556Z,19.79
2019-03-26T07:57:17.036Z,20.84
2019-03-26T07:59:45.474Z,20.50
2019-03-26T08:02:13.969Z,21.43
2019-03-26T08:04:42.365Z,21.13
2019-03-26T08:07:10.773Z,21.21
2019-03-26T08:09:39.167Z,19.73
2019-03-26T08:12:07.578Z,21.77
2019-03-26T08:14:36.104Z,22.30
2019-03-26T08:17:04.624Z,21.20
2019-03-26T08:19:33.085Z,19.75
2019-03-26T08:22:01.517Z,19.10
2019-03-26T08:24:32.047Z,17.53
2019-03-26T08:27:00.448Z,16.53
2019-03-26T08:29:28.853Z,15.50
2019-03-26T08:31:57.304Z,14.30
2019-03-26T08:34:25.783Z,12.94
2019-03-26T08:36:54.194Z,13.05
2019-03-26T08:39:22.623Z,12.87
2019-03-26T08:41:51.031Z,13.37
2019-03-26T08:44:19.449Z,13.61
2019-03-26T08:46:47.883Z,15.16
2019-03-26T08:49:16.283Z,16.59
2019-03-26T08:51:44.743Z,17.36
2019-03-26T08:54:13.158Z,16.78
2019-03-26T08:56:41.566Z,16.22
2019-03-26T08:59:10.030Z,15.38
2019-03-26T09:01:38.568Z,14.82
2019-03-26T09:04:07.047Z,14.07
2019-03-26T09:06:35.698Z,13.62
2019-03-26T09:09:06.549Z,13.20
2019-03-26T09:11:34.943Z,13.07
2019-03-26T09:14:03.508Z,13.16
2019-03-26T09:16:32.070Z,13.30
2019-03-26T09:19:00.517Z,13.45
2019-03-26T09:21:29.008Z,15.59
2019-03-26T09:23:57.425Z,15.75
2019-03-26T09:26:25.821Z,15.54
2019-03-26T09:28:54.235Z,14.42
2019-03-26T09:31:22.795Z,13.88
2019-03-26T09:33:51.203Z,13.25
2019-03-26T09:36:19.693Z,12.48
2019-03-26T09:38:48.176Z,11.99
2019-03-26T09:41:16.579Z,11.60
2019-03-26T09:43:44.985Z,11.11
2019-03-26T09:46:13.456Z,10.87
2019-03-26T09:48:41.928Z,10.98
2019-03-26T09:51:10.942Z,10.88
2019-03-26T09:53:39.500Z,10.95
2019-03-26T09:56:07.913Z,11.08
2019-03-26T09:58:36.300Z,11.14
2019-03-26T10:01:04.893Z,11.32
2019-03-26T10:03:33.356Z,11.64
2019-03-26T10:06:01.870Z,11.83
2019-03-26T10:08:30.361Z,12.55
2019-03-26T10:10:58.836Z,12.84
2019-03-26T10:13:27.240Z,12.86
2019-03-26T10:15:55.672Z,13.01
2019-03-26T10:18:24.178Z,12.76
2019-03-26T10:20:52.613Z,12.50
2019-03-26T10:23:21.016Z,11.95
2019-03-26T10:25:49.513Z,11.73
2019-03-26T10:28:17.914Z,11.34
2019-03-26T10:30:46.410Z,11.15
2019-03-26T10:33:14.794Z,10.94
2019-03-26T10:35:43.291Z,10.68
2019-03-26T10:38:11.719Z,10.58
2019-03-26T10:40:40.390Z,10.85
2019-03-26T10:43:08.935Z,11.13
2019-03-26T10:45:37.405Z,11.26
2019-03-26T10:48:05.968Z,11.55
2019-03-26T10:50:34.375Z,11.69
2019-03-26T10:53:02.830Z,11.74
2019-03-26T10:55:31.368Z,11.95
2019-03-26T10:57:59.807Z,11.50
2019-03-26T11:00:28.278Z,11.50
2019-03-26T11:02:56.739Z,11.36
2019-03-26T11:05:25.520Z,11.39
2019-03-26T11:07:53.991Z,11.36
2019-03-26T11:10:22.401Z,11.42
2019-03-26T11:12:50.819Z,11.28
2019-03-26T11:15:38.559Z,11.21
2019-03-26T11:18:07.237Z,10.95
2019-03-26T11:20:35.676Z,10.95
2019-03-26T11:23:04.164Z,10.97
2019-03-26T11:25:32.659Z,10.92
2019-03-26T11:28:01.098Z,10.82
2019-03-26T11:30:29.659Z,10.91
2019-03-26T11:32:58.180Z,11.04
2019-03-26T11:35:26.663Z,10.87
2019-03-26T11:37:55.140Z,10.80
2019-03-26T11:40:23.605Z,10.72
2019-03-26T11:42:52.064Z,10.42
2019-03-26T11:45:20.711Z,10.16
2019-03-26T11:47:50.664Z,9.98
2019-03-26T11:50:19.304Z,9.96
2019-03-26T11:52:47.833Z,9.77
2019-03-26T11:55:16.466Z,9.52
2019-03-26T11:57:45.013Z,9.45
2019-03-26T12:00:17.071Z,9.45
2019-03-26T12:02:45.488Z,9.44
2019-03-26T12:05:14.033Z,9.80
2019-03-26T12:07:43.059Z,9.80
2019-03-26T12:10:13.225Z,9.79
2019-03-26T12:12:41.719Z,9.79
2019-03-26T12:15:11.741Z,9.44
2019-03-26T12:17:40.140Z,9.35
2019-03-26T12:20:08.754Z,9.35
2019-03-26T12:22:37.265Z,9.32
2019-03-26T12:25:07.109Z,9.04
2019-03-26T12:33:32.422Z,8.67
2019-03-26T12:42:35.774Z,9.29
2019-03-26T12:45:07.205Z,9.39
2019-03-26T12:47:35.770Z,9.66
2019-03-26T12:50:06.753Z,9.91
2019-03-26T12:52:35.158Z,10.03
2019-03-26T12:55:03.785Z,10.56
2019-03-26T12:57:32.142Z,10.92
2019-03-26T13:00:00.578Z,10.92
2019-03-26T13:02:29.148Z,11.47
2019-03-26T13:04:58.597Z,12.36
2019-03-26T13:07:27.070Z,13.75
2019-03-26T13:09:55.560Z,15.25
2019-03-26T13:12:23.954Z,16.55
2019-03-26T13:14:52.369Z,18.26
2019-03-26T13:17:20.825Z,17.36
2019-03-26T13:22:17.475Z,13.89
2019-03-26T13:24:45.866Z,13.32
2019-03-26T13:27:14.351Z,13.36
2019-03-26T13:29:42.796Z,13.99
2019-03-26T13:32:13.009Z,14.50
2019-03-26T13:34:41.362Z,15.87
2019-03-26T13:37:09.778Z,16.17
2019-03-26T13:39:38.227Z,15.66
2019-03-26T13:42:06.703Z,15.02
2019-03-26T13:44:35.193Z,14.64
2019-03-26T13:47:03.696Z,14.53
2019-03-26T13:49:32.130Z,14.30
2019-03-26T13:52:00.559Z,14.16
2019-03-26T13:54:28.951Z,13.96
2019-03-26T13:56:57.429Z,14.43
2019-03-26T13:59:25.845Z,14.48
2019-03-26T14:01:54.246Z,15.02
2019-03-26T14:04:22.673Z,14.96
2019-03-26T14:06:52.543Z,15.15
2019-03-26T14:09:21.342Z,16.21
2019-03-26T14:11:49.836Z,16.83
2019-03-26T14:14:18.262Z,16.45
2019-03-26T14:16:46.676Z,16.57
2019-03-26T14:19:15.148Z,17.27
2019-03-26T14:21:43.542Z,17.02
2019-03-26T14:24:13.476Z,16.48
2019-03-26T14:26:42.024Z,16.20
2019-03-26T14:29:10.639Z,16.00
2019-03-26T14:31:39.041Z,15.66
2019-03-26T14:34:07.486Z,16.29
2019-03-26T14:36:35.959Z,15.07
2019-03-26T14:39:07.452Z,15.24
2019-03-26T14:41:35.869Z,14.59
2019-03-26T14:44:04.357Z,15.10
2019-03-26T14:46:32.791Z,15.07
2019-03-26T14:49:01.264Z,15.16
2019-03-26T14:51:29.700Z,14.76
2019-03-26T14:53:58.132Z,14.30
2019-03-26T14:56:26.580Z,14.01
2019-03-26T14:58:54.980Z,13.77
2019-03-26T15:01:23.488Z,13.39
2019-03-26T15:03:51.934Z,13.42
2019-03-26T15:06:20.406Z,13.24
2019-03-26T15:08:48.970Z,13.20
2019-03-26T15:11:17.399Z,13.34
2019-03-26T15:13:49.236Z,13.37
2019-03-26T15:16:16.076Z,13.66
2019-03-26T15:18:44.569Z,13.81
2019-03-26T15:21:13.071Z,13.60
2019-03-26T15:23:41.498Z,13.46
2019-03-26T15:26:10.010Z,13.22
2019-03-26T15:28:38.434Z,12.73
2019-03-26T15:31:06.971Z,12.39
2019-03-26T15:33:35.437Z,12.06
2019-03-26T15:36:04.004Z,11.88
2019-03-26T15:38:32.463Z,11.70
2019-03-26T15:41:20.950Z,11.57
2019-03-26T15:43:39.794Z,11.42
2019-03-26T15:46:11.494Z,11.45
2019-03-26T15:48:39.918Z,11.64
2019-03-26T15:51:08.409Z,11.43
2019-03-26T15:53:36.852Z,11.32
2019-03-26T15:56:05.408Z,11.15
2019-03-26T15:58:33.828Z,10.65
2019-03-26T16:01:02.336Z,11.01
2019-03-26T16:03:30.794Z,11.01
2019-03-26T16:05:59.194Z,11.01
2019-03-26T16:08:27.683Z,11.01
2019-03-26T16:10:56.182Z,10.97
2019-03-26T16:13:24.612Z,10.96
2019-03-26T16:15:53.042Z,10.63
2019-03-26T16:18:21.474Z,10.39
2019-03-26T16:20:49.882Z,10.16
2019-03-26T16:23:18.331Z,9.96
2019-03-26T16:25:46.727Z,9.87
2019-03-26T16:28:15.160Z,9.76
2019-03-26T16:30:43.559Z,9.71
2019-03-26T16:33:12.077Z,9.76
2019-03-26T16:35:40.677Z,9.73
2019-03-26T16:38:09.196Z,9.80
2019-03-26T16:40:38.819Z,9.99
2019-03-26T16:43:07.213Z,9.99
2019-03-26T16:45:35.622Z,9.87
2019-03-26T16:48:04.115Z,9.71
2019-03-26T16:50:32.650Z,9.71
2019-03-26T16:53:01.057Z,9.73
2019-03-26T16:55:29.463Z,9.76
2019-03-26T16:57:58.223Z,9.62
2019-03-26T17:00:31.278Z,9.48
2019-03-26T17:03:00.429Z,9.48
2019-03-26T17:05:28.962Z,9.45
2019-03-26T17:07:57.496Z,9.33
2019-03-26T17:10:25.898Z,9.22
2019-03-26T17:12:54.327Z,9.09
2019-03-26T17:15:22.820Z,8.95
2019-03-26T17:17:51.234Z,8.90
2019-03-26T17:20:19.681Z,8.78
2019-03-26T17:22:48.088Z,8.78
2019-03-26T17:25:16.509Z,8.82
2019-03-26T17:27:44.997Z,8.78
2019-03-26T17:30:13.673Z,8.44
2019-03-26T17:32:42.079Z,8.44
2019-03-26T17:35:10.646Z,8.48
2019-03-26T17:37:39.055Z,8.34
2019-03-26T17:40:07.621Z,8.28
2019-03-26T17:42:36.094Z,8.26
2019-03-26T17:45:06.454Z,8.24
2019-03-26T17:47:35.038Z,8.24
2019-03-26T17:50:04.613Z,8.05
2019-03-26T17:52:33.021Z,7.97
2019-03-26T17:55:01.437Z,7.89
2019-03-26T17:57:29.865Z,7.81
2019-03-26T17:59:58.349Z,7.75
2019-03-26T18:02:26.860Z,7.75
2019-03-26T18:04:55.803Z,7.78
2019-03-26T18:07:24.295Z,7.73
2019-03-26T18:09:52.713Z,7.70
2019-03-26T18:12:30.637Z,7.63
2019-03-26T18:14:51.327Z,7.61
2019-03-26T18:17:19.737Z,7.59
2019-03-26T18:19:48.138Z,7.57
2019-03-26T18:22:16.585Z,7.56
2019-03-26T18:24:44.978Z,7.53
2019-03-26T18:27:13.393Z,7.45
2019-03-26T18:29:41.822Z,7.38
2019-03-26T18:32:10.249Z,7.31
2019-03-26T18:34:38.661Z,7.19
2019-03-26T18:37:07.146Z,7.11
2019-03-26T18:39:35.593Z,7.13
2019-03-26T18:42:04.141Z,7.02
2019-03-26T18:44:32.591Z,6.96
2019-03-26T18:47:01.051Z,6.85
2019-03-26T18:49:29.469Z,6.79
2019-03-26T18:51:57.996Z,6.66
2019-03-26T18:54:26.410Z,6.68
2019-03-26T18:56:54.836Z,6.67
2019-03-26T18:59:23.303Z,6.56
2019-03-26T19:01:51.732Z,6.49
2019-03-26T19:04:20.176Z,6.53
2019-03-26T19:06:48.639Z,6.52
2019-03-26T19:09:17.040Z,6.42
2019-03-26T19:11:45.473Z,6.41
2019-03-26T19:14:13.859Z,6.53
2019-03-26T19:16:42.324Z,6.59
2019-03-26T19:19:10.763Z,6.51
2019-03-26T19:21:39.233Z,6.40
2019-03-26T19:24:07.657Z,6.37
2019-03-26T19:26:36.086Z,6.29
2019-03-26T19:29:04.597Z,6.19
2019-03-26T19:31:32.996Z,6.21
2019-03-26T19:34:01.414Z,6.28
2019-03-26T19:36:29.865Z,6.38
2019-03-26T19:38:58.419Z,6.36
2019-03-26T19:41:26.943Z,6.34
2019-03-26T19:43:55.416Z,6.26
2019-03-26T19:46:23.909Z,6.29
2019-03-26T19:48:52.299Z,6.13
2019-03-26T19:51:20.751Z,6.01
2019-03-26T19:53:49.177Z,5.95
2019-03-26T19:56:17.695Z,5.83
2019-03-26T19:58:46.146Z,5.74
2019-03-26T20:01:14.646Z,5.64
2019-03-26T20:03:43.153Z,5.58
2019-03-26T20:06:13.733Z,5.52
2019-03-26T20:08:41.876Z,5.56
2019-03-26T20:11:10.390Z,5.51
2019-03-26T20:13:38.917Z,5.48
2019-03-26T20:16:07.440Z,5.34
2019-03-26T20:18:35.853Z,5.30
2019-03-26T20:21:04.591Z,5.27
2019-03-26T20:23:33.156Z,5.20
2019-03-26T20:26:01.625Z,5.31
2019-03-26T20:28:30.020Z,5.30
2019-03-26T20:30:58.490Z,5.30
2019-03-26T20:33:26.915Z,5.23
2019-03-26T20:35:55.327Z,5.16
2019-03-26T20:38:23.747Z,5.28
2019-03-26T20:40:52.408Z,5.26
2019-03-26T20:43:20.839Z,5.28
2019-03-26T20:45:49.290Z,5.26
2019-03-26T20:48:17.931Z,5.32
2019-03-26T20:50:46.444Z,5.37
2019-03-26T20:53:14.961Z,5.33
2019-03-26T20:55:53.860Z,5.32
2019-03-26T20:58:13.705Z,5.27
2019-03-26T21:03:35.031Z,5.38
2019-03-26T21:06:03.615Z,5.35
2019-03-26T21:08:32.092Z,5.34
2019-03-26T21:11:00.657Z,5.44
2019-03-26T21:13:29.124Z,5.46
2019-03-26T21:15:57.825Z,5.46
2019-03-26T21:18:26.284Z,5.47
2019-03-26T21:20:54.776Z,5.43
2019-03-26T21:23:23.374Z,5.38
2019-03-26T21:25:51.849Z,5.36
2019-03-26T21:28:20.320Z,5.37
2019-03-26T21:30:48.870Z,5.39
2019-03-26T21:33:17.296Z,5.37
2019-03-26T21:35:45.810Z,5.43
2019-03-26T21:38:14.292Z,5.50
2019-03-26T21:40:42.766Z,5.48
2019-03-26T21:43:11.251Z,5.47
2019-03-26T21:45:40.321Z,5.45
2019-03-26T21:48:09.096Z,5.45
2019-03-26T21:50:37.681Z,5.48
2019-03-26T21:53:06.236Z,5.49
2019-03-26T21:55:34.796Z,5.49
2019-03-26T21:58:03.555Z,5.55
2019-03-26T22:00:31.995Z,5.46
2019-03-26T22:03:00.533Z,5.43
2019-03-26T22:05:28.966Z,5.34
2019-03-26T22:07:57.454Z,5.31
2019-03-26T22:10:25.916Z,5.29
2019-03-26T22:12:54.331Z,5.22
2019-03-26T22:15:22.823Z,5.25
2019-03-26T22:17:51.254Z,5.29
2019-03-26T22:20:19.826Z,5.36
2019-03-26T22:22:48.278Z,5.26
2019-03-26T22:25:16.853Z,5.08
2019-03-26T22:27:45.293Z,4.99
2019-03-26T22:30:14.451Z,5.04
2019-03-26T22:32:42.868Z,5.11
2019-03-26T22:35:11.742Z,5.18
2019-03-26T22:37:40.229Z,5.25
2019-03-26T22:40:09.297Z,5.31
2019-03-26T22:42:37.782Z,5.38
2019-03-26T22:45:08.868Z,5.42
2019-03-26T22:47:38.755Z,5.45
2019-03-26T22:50:08.601Z,5.47
2019-03-26T22:52:37.157Z,5.49
2019-03-26T22:55:07.794Z,5.53
2019-03-26T22:57:36.383Z,5.55
2019-03-26T23:00:08.113Z,5.58
2019-03-26T23:02:36.620Z,5.61
2019-03-26T23:05:06.914Z,5.64
2019-03-26T23:07:35.399Z,5.68
2019-03-26T23:10:04.855Z,5.67
2019-03-26T23:12:33.278Z,5.67
2019-03-26T23:15:01.879Z,5.71
2019-03-26T23:17:30.359Z,5.68
2019-03-26T23:19:58.772Z,5.66
2019-03-26T23:22:27.188Z,5.65
2019-03-26T23:24:55.601Z,5.65
2019-03-26T23:27:24.016Z,5.65
2019-03-26T23:29:52.414Z,5.68
2019-03-26T23:32:20.849Z,5.61
2019-03-26T23:34:49.318Z,5.56
2019-03-26T23:37:17.737Z,5.52
2019-03-26T23:39:46.149Z,5.50
2019-03-26T23:42:14.561Z,5.56
2019-03-26T23:44:43.058Z,5.63
2019-03-26T23:47:11.464Z,5.68
2019-03-26T23:49:39.900Z,5.69
2019-03-26T23:52:08.403Z,5.71
2019-03-26T23:54:36.790Z,5.71
2019-03-26T23:57:05.184Z,5.66
2019-03-26T23:59:33.606Z,5.66
